DL8FX-6 Weather Reports


time (UTC)temp
C
wind
direction
speed
KPH
gust
KPH
rain 1hr
cm
rain 24hr
cm
rain mn
cm
humidity
%
barometer
mb
20200221043017 4 25 4.8 9.7 0.00 0.51 0.38 81 1011.9
20200221042113 4 328 8.0 11.3 0.00 0.51 0.38 82 1011.5
20200221041109 4 245 6.4 16.1 0.00 0.51 0.38 83 1011.2
20200221040105 4 183 6.4 12.9 0.00 0.51 0.38 83 1010.8
20200221035101 4 270 6.4 12.9 0.00 0.51 0.38 82 1010.5
20200221034058 5 235 6.4 11.3 0.00 0.51 0.38 83 1010.5
20200221033054 5 146 11.3 20.9 0.03 0.51 0.38 83 1010.0
20200221032050 5 270 14.5 27.4 0.03 0.51 0.38 84 1009.5
20200221031046 5 270 9.7 14.5 0.03 0.51 0.38 84 1008.9
20200221030042 5 264 11.3 20.9 0.03 0.51 0.38 85 1008.5
20200221025038 5 237 9.7 16.1 0.05 0.51 0.38 86 1008.1
20200221024035 5 259 8.0 12.9 0.05 0.51 0.38 87 1007.8
20200221023131 5 254 8.0 19.3 0.05 0.48 0.36 87 1007.6
20200221022056 5 270 6.4 11.3 0.05 0.48 0.36 87 1007.2
20200221021052 5 353 6.4 12.9 0.10 0.48 0.36 87 1006.8
20200221020048 6 331 9.7 29.0 0.13 0.48 0.36 89 1006.6
20200221015044 6 256 6.4 12.9 0.10 0.46 0.33 89 1006.0
20200221014040 6 281 8.0 16.1 0.13 0.46 0.33 89 1005.4
20200221013036 6 221 3.2 8.0 0.13 0.43 0.30 88 1005.1
20200221012032 6 208 4.8 9.7 0.13 0.43 0.30 88 1005.0
20200221011028 6 97 4.8 11.3 0.13 0.38 0.28 88 1004.9
20200221010024 6 225 4.8 11.3 0.13 0.36 0.23 87 1004.9
20200221005019 6 271 4.8 6.4 0.13 0.36 0.23 87 1004.8
20200221004016 6 211 4.8 9.7 0.15 0.33 0.20 87 1004.8
20200221003112 6 233 4.8 12.9 0.15 0.30 0.18 86 1004.8
20200221002108 6 196 8.0 16.1 0.15 0.30 0.18 86 1004.8
20200221001104 6 151 4.8 11.3 0.13 0.28 0.15 85 1005.0
20200221000100 6 163 3.2 6.4 0.13 0.23 0.13 84 1005.2
20200220235056 6 145 8.0 12.9 0.13 0.23 0.13 83 1005.3
20200220234052 6 95 4.8 11.3 0.05 0.18 0.05 82 1005.4
20200220233047 6 128 6.4 9.7 0.03 0.15 0.03 81 1005.6
20200220232043 7 236 6.4 12.9 0.03 0.15 0.03 80 1005.6
20200220231040 7 195 6.4 17.7 0.03 0.15 0.03 79 1005.6
20200220230036 7 200 4.8 8.0 0.00 0.13 0.00 76 1005.9
20200220225032 7 178 9.7 16.1 0.00 0.13 0.13 70 1006.1
20200220224028 7 189 8.0 20.9 0.00 0.13 0.13 70 1006.4
20200220223024 7 122 8.0 17.7 0.00 0.13 0.13 70 1006.6
20200220222020 7 182 6.4 16.1 0.00 0.13 0.13 70 1006.6
20200220221016 7 198 8.0 12.9 0.00 0.15 0.13 70 1006.8
20200220220113 7 199 8.0 14.5 0.00 0.15 0.13 70 1007.0
20200220215109 7 168 8.0 14.5 0.00 0.15 0.13 70 1006.9
20200220214105 7 144 4.8 12.9 0.00 0.15 0.13 75 1007.2
20200220213102 7 164 8.0 16.1 0.00 0.15 0.13 75 1007.5
20200220212058 7 136 9.7 14.5 0.00 0.15 0.13 75 1007.6
20200220211054 7 133 8.0 17.7 0.00 0.15 0.13 75 1007.6
20200220210050 7 153 4.8 9.7 0.00 0.15 0.13 75 1007.9
20200220205046 7 185 9.7 17.7 0.00 0.15 0.13 76 1008.1
20200220204043 7 169 6.4 12.9 0.00 0.15 0.13 78 1008.3
20200220203038 7 175 9.7 14.5 0.00 0.15 0.13 79 1008.4
20200220202035 6 182 6.4 14.5 0.00 0.15 0.13 80 1008.7
20200220201030 6 160 6.4 11.3 0.00 0.15 0.13 80 1008.9
20200220200026 6 171 6.4 17.7 0.00 0.20 0.13 80 1009.1
20200220195025 7 188 8.0 14.5 0.00 0.23 0.13 79 1009.4
20200220194018 7 139 4.8 11.3 0.00 0.30 0.13 80 1009.6
20200220193115 7 178 9.7 17.7 0.00 0.36 0.13 80 1009.7
20200220192111 7 163 8.0 16.1 0.00 0.38 0.13 80 1009.9
20200220191107 7 158 6.4 11.3 0.00 0.38 0.13 81 1010.2
20200220190103 7 204 6.4 9.7 0.00 0.38 0.13 81 1010.4
20200220185059 7 126 6.4 11.3 0.00 0.38 0.13 81 1010.6
20200220184055 7 153 6.4 12.9 0.00 0.38 0.13 81 1010.7
20200220183052 7 158 8.0 16.1 0.00 0.38 0.13 82 1010.8
20200220182048 6 168 8.0 17.7 0.00 0.38 0.13 82 1010.9
20200220181044 6 171 3.2 8.0 0.00 0.38 0.13 83 1011.2
20200220180040 6 191 3.2 11.3 0.00 0.38 0.13 83 1011.3
20200220175036 6 174 6.4 11.3 0.00 0.38 0.13 84 1011.3
20200220174032 6 140 4.8 12.9 0.00 0.43 0.13 84 1011.3
20200220173029 6 68 4.8 9.7 0.00 0.43 0.13 84 1011.4
20200220172025 6 223 4.8 11.3 0.00 0.43 0.13 85 1011.7
20200220171021 6 104 6.4 11.3 0.00 0.43 0.13 85 1011.8
20200220170017 6 155 3.2 6.4 0.00 0.43 0.13 85 1011.9
20200220165113 6 157 4.8 11.3 0.00 0.43 0.13 86 1012.1
20200220164109 6 130 4.8 11.3 0.00 0.43 0.13 86 1012.2
20200220163105 6 211 3.2 6.4 0.00 0.43 0.13 86 1012.3
20200220162102 6 180 4.8 8.0 0.00 0.43 0.13 86 1012.4
20200220161058 6 191 4.8 9.7 0.00 0.43 0.13 86 1012.6
20200220160054 6 152 4.8 11.3 0.00 0.43 0.13 86 1012.6
20200220155050 6 152 4.8 12.9 0.00 0.46 0.13 86 1012.9
20200220154046 6 173 6.4 12.9 0.00 0.46 0.13 86 1013.0
20200220153042 6 197 8.0 12.9 0.00 0.51 0.13 87 1013.3
20200220152038 6 224 8.0 12.9 0.00 0.64 0.13 87 1013.3
20200220151034 6 167 6.4 9.7 0.00 0.69 0.13 87 1013.5
20200220150030 6 185 8.0 17.7 0.00 0.69 0.13 87 1013.7
20200220145026 6 133 8.0 14.5 0.00 0.69 0.13 88 1013.9
20200220144023 6 224 1.6 6.4 0.00 0.69 0.13 88 1014.0
20200220143019 6 124 4.8 8.0 0.03 0.69 0.13 87 1014.2
20200220142015 6 153 4.8 11.3 0.03 0.69 0.13 87 1014.2
20200220141112 6 220 4.8 8.0 0.03 0.69 0.13 87 1014.3
20200220140107 6 130 6.4 12.9 0.05 0.69 0.13 87 1014.5
20200220135104 6 158 8.0 12.9 0.05 0.69 0.13 87 1014.5
20200220134100 6 153 4.8 11.3 0.10 0.69 0.13 87 1014.7
20200220133055 6 180 3.2 8.0 0.05 0.66 0.10 86 1015.0
20200220132051 5 267 3.2 6.4 0.05 0.66 0.10 86 1015.1
20200220131047 5 149 6.4 9.7 0.10 0.66 0.10 85 1015.2
20200220130043 5 156 4.8 12.9 0.05 0.64 0.05 84 1015.3
20200220125039 6 171 3.2 6.4 0.05 0.64 0.05 83 1015.4
20200220124035 6 237 1.6 4.8 0.03 0.61 0.03 82 1015.5
20200220123131 6 169 3.2 6.4 0.03 0.61 0.03 81 1015.6
20200220122056 6 192 4.8 11.3 0.03 0.61 0.03 80 1015.7
20200220121052 6 315 6.4 12.9 0.00 0.56 0.00 75 1015.8
20200220120049 6 180 6.4 12.9 0.00 0.56 0.00 72 1015.8
20200220115045 6 198 6.4 9.7 0.00 0.56 0.00 71 1016.0
20200220114040 6 158 3.2 8.0 0.00 0.56 0.00 71 1016.1
20200220113036 6 133 6.4 14.5 0.00 0.56 0.00 70 1016.2
20200220112032 6 186 4.8 9.7 0.00 0.56 0.00 69 1016.3
20200220111028 6 180 4.8 6.4 0.00 0.56 0.00 68 1016.5
20200220110024 6 186 4.8 9.7 0.00 0.56 0.00 69 1016.7
20200220105020 6 95 6.4 12.9 0.00 0.56 0.00 66 1016.8
20200220104016 6 179 6.4 12.9 0.00 0.56 0.00 64 1016.8
20200220103112 7 185 3.2 6.4 0.00 0.56 0.00 64 1016.8
20200220102109 6 186 6.4 12.9 0.00 0.56 0.00 64 1016.9
20200220101104 6 175 4.8 12.9 0.00 0.56 0.00 65 1017.0
20200220100100 6 231 4.8 12.9 0.00 0.56 0.00 63 1017.0
20200220095056 6 146 6.4 11.3 0.00 0.56 0.00 63 1017.0
20200220094052 6 238 6.4 14.5 0.00 0.56 0.00 63 1017.0
20200220093048 6 192 8.0 12.9 0.00 0.56 0.00 63 1017.1
20200220092045 6 216 4.8 12.9 0.00 0.56 0.00 64 1017.3
20200220091041 5 71 8.0 12.9 0.00 0.56 0.00 66 1017.4
20200220090037 5 149 6.4 9.7 0.00 0.56 0.00 69 1017.4
20200220085033 4 170 6.4 16.1 0.00 0.56 0.00 69 1017.4
20200220084029 4 162 4.8 8.0 0.00 0.61 0.00 71 1017.5
20200220083025 3 184 3.2 6.4 0.00 0.64 0.00 72 1017.6
20200220082021 3 222 3.2 9.7 0.00 0.64 0.00 72 1017.6
20200220081017 3 172 4.8 8.0 0.00 0.66 0.00 74 1017.7
20200220080114 3 143 3.2 6.4 0.00 0.66 0.00 76 1017.7
20200220075109 2 180 3.2 6.4 0.00 0.66 0.00 78 1017.9
20200220074106 2 140 1.6 6.4 0.00 0.66 0.00 80 1017.8
20200220073102 2 167 1.6 4.8 0.00 0.69 0.00 81 1017.7
20200220072058 2 140 3.2 6.4 0.00 0.69 0.00 84 1017.8
20200220071054 2 184 3.2 6.4 0.00 0.71 0.00 86 1017.7
20200220070050 1 140 1.6 6.4 0.00 0.76 0.00 86 1017.8
20200220065046 1 127 1.6 6.4 0.00 0.79 0.00 86 1017.8
20200220064042 0 138 1.6 6.4 0.00 0.79 0.00 85 1017.8
20200220063039 0 0.0 1.6 0.00 0.79 0.00 85 1017.7
20200220062034 0 0.0 1.6 0.00 0.79 0.00 85 1017.8
20200220061031 0 0.0 1.6 0.00 0.79 0.00 84 1017.8
20200220060027 0 0.0 1.6 0.00 0.79 0.00 84 1017.8
20200220055023 0 75 0.0 3.2 0.00 0.79 0.00 84 1017.9
20200220054019 0 0.0 0.0 0.00 0.79 0.00 83 1017.9
20200220053115 0 0.0 0.0 0.00 0.79 0.00 83 1017.8
20200220052111 0 45 0.0 3.2 0.00 0.79 0.00 83 1017.8
20200220051107 0 0.0 3.2 0.00 0.79 0.00 83 1017.8
20200220050103 0 0.0 3.2 0.00 0.79 0.00 83 1018.0
20200220045100 0 0.0 0.0 0.00 0.79 0.00 83 1018.0
20200220044055 0 0.0 1.6 0.00 0.79 0.00 83 1018.0